sensor_id;sensor_type;location;lat;lon;timestamp;P1;durP1;ratioP1;P2;durP2;ratioP2
7657;SDS011;8462;53.156;8.220;2023-04-01T00:01:04;12.30;;;7.27;;
7657;SDS011;8462;53.156;8.220;2023-04-01T00:03:32;11.83;;;7.37;;
7657;SDS011;8462;53.156;8.220;2023-04-01T00:06:03;12.10;;;8.30;;
7657;SDS011;8462;53.156;8.220;2023-04-01T00:08:30;13.20;;;8.50;;
7657;SDS011;8462;53.156;8.220;2023-04-01T00:10:57;14.70;;;8.20;;
7657;SDS011;8462;53.156;8.220;2023-04-01T00:13:24;14.27;;;8.73;;
7657;SDS011;8462;53.156;8.220;2023-04-01T00:15:52;12.87;;;8.57;;
7657;SDS011;8462;53.156;8.220;2023-04-01T00:18:20;17.33;;;9.00;;
7657;SDS011;8462;53.156;8.220;2023-04-01T00:20:47;11.23;;;8.10;;
7657;SDS011;8462;53.156;8.220;2023-04-01T00:23:17;18.77;;;9.23;;
7657;SDS011;8462;53.156;8.220;2023-04-01T00:25:45;13.87;;;9.13;;
7657;SDS011;8462;53.156;8.220;2023-04-01T00:28:13;14.27;;;8.77;;
7657;SDS011;8462;53.156;8.220;2023-04-01T00:30:40;14.33;;;9.07;;
7657;SDS011;8462;53.156;8.220;2023-04-01T00:33:07;13.77;;;8.20;;
7657;SDS011;8462;53.156;8.220;2023-04-01T00:35:34;14.53;;;9.20;;
7657;SDS011;8462;53.156;8.220;2023-04-01T00:38:01;15.13;;;9.60;;
7657;SDS011;8462;53.156;8.220;2023-04-01T00:40:31;16.33;;;9.63;;
7657;SDS011;8462;53.156;8.220;2023-04-01T00:43:00;14.77;;;8.83;;
7657;SDS011;8462;53.156;8.220;2023-04-01T00:45:29;13.87;;;9.50;;
7657;SDS011;8462;53.156;8.220;2023-04-01T00:47:59;17.13;;;10.00;;
7657;SDS011;8462;53.156;8.220;2023-04-01T00:50:31;15.27;;;9.67;;
7657;SDS011;8462;53.156;8.220;2023-04-01T00:53:00;16.93;;;9.93;;
7657;SDS011;8462;53.156;8.220;2023-04-01T00:55:30;15.83;;;9.77;;
7657;SDS011;8462;53.156;8.220;2023-04-01T00:57:59;15.00;;;9.40;;
7657;SDS011;8462;53.156;8.220;2023-04-01T01:00:30;15.30;;;10.67;;
7657;SDS011;8462;53.156;8.220;2023-04-01T01:02:57;18.67;;;9.83;;
7657;SDS011;8462;53.156;8.220;2023-04-01T01:05:27;15.47;;;9.60;;
7657;SDS011;8462;53.156;8.220;2023-04-01T01:08:01;17.03;;;10.07;;
7657;SDS011;8462;53.156;8.220;2023-04-01T01:10:36;16.93;;;10.07;;
7657;SDS011;8462;53.156;8.220;2023-04-01T01:13:08;13.77;;;8.93;;
7657;SDS011;8462;53.156;8.220;2023-04-01T01:15:38;14.83;;;9.57;;
7657;SDS011;8462;53.156;8.220;2023-04-01T01:18:14;14.30;;;9.97;;
7657;SDS011;8462;53.156;8.220;2023-04-01T01:21:04;16.90;;;9.97;;
7657;SDS011;8462;53.156;8.220;2023-04-01T01:26:46;15.13;;;8.50;;
7657;SDS011;8462;53.156;8.220;2023-04-01T01:32:14;13.77;;;8.37;;
7657;SDS011;8462;53.156;8.220;2023-04-01T01:37:55;14.63;;;8.30;;
7657;SDS011;8462;53.156;8.220;2023-04-01T01:40:26;14.87;;;7.90;;
7657;SDS011;8462;53.156;8.220;2023-04-01T01:42:56;12.20;;;8.47;;
7657;SDS011;8462;53.156;8.220;2023-04-01T01:45:26;12.77;;;8.30;;
7657;SDS011;8462;53.156;8.220;2023-04-01T01:47:53;12.73;;;8.83;;
7657;SDS011;8462;53.156;8.220;2023-04-01T01:50:24;16.67;;;7.97;;
7657;SDS011;8462;53.156;8.220;2023-04-01T01:53:00;14.07;;;8.40;;
7657;SDS011;8462;53.156;8.220;2023-04-01T01:55:29;15.17;;;8.73;;
7657;SDS011;8462;53.156;8.220;2023-04-01T01:57:57;14.40;;;9.03;;
7657;SDS011;8462;53.156;8.220;2023-04-01T02:00:27;12.53;;;8.77;;
7657;SDS011;8462;53.156;8.220;2023-04-01T02:02:55;12.97;;;8.33;;
7657;SDS011;8462;53.156;8.220;2023-04-01T02:05:26;13.57;;;9.10;;
7657;SDS011;8462;53.156;8.220;2023-04-01T02:08:01;15.43;;;9.13;;
7657;SDS011;8462;53.156;8.220;2023-04-01T02:10:34;14.63;;;8.73;;
7657;SDS011;8462;53.156;8.220;2023-04-01T02:13:06;16.07;;;8.87;;
7657;SDS011;8462;53.156;8.220;2023-04-01T02:15:37;14.80;;;9.30;;
7657;SDS011;8462;53.156;8.220;2023-04-01T02:18:09;13.07;;;8.20;;
7657;SDS011;8462;53.156;8.220;2023-04-01T02:20:39;12.77;;;9.07;;
7657;SDS011;8462;53.156;8.220;2023-04-01T02:23:07;11.37;;;8.20;;
7657;SDS011;8462;53.156;8.220;2023-04-01T02:25:36;13.77;;;8.77;;
7657;SDS011;8462;53.156;8.220;2023-04-01T02:28:04;14.77;;;9.63;;
7657;SDS011;8462;53.156;8.220;2023-04-01T02:30:33;13.87;;;8.80;;
7657;SDS011;8462;53.156;8.220;2023-04-01T02:33:03;14.37;;;9.23;;
7657;SDS011;8462;53.156;8.220;2023-04-01T02:35:32;15.20;;;8.47;;
7657;SDS011;8462;53.156;8.220;2023-04-01T02:38:01;13.80;;;9.07;;
7657;SDS011;8462;53.156;8.220;2023-04-01T02:40:28;12.00;;;8.30;;
7657;SDS011;8462;53.156;8.220;2023-04-01T02:42:55;19.93;;;11.27;;
7657;SDS011;8462;53.156;8.220;2023-04-01T02:45:22;15.60;;;9.17;;
7657;SDS011;8462;53.156;8.220;2023-04-01T02:47:50;13.97;;;8.87;;
7657;SDS011;8462;53.156;8.220;2023-04-01T02:50:17;14.90;;;9.23;;
7657;SDS011;8462;53.156;8.220;2023-04-01T02:52:44;14.97;;;8.90;;
7657;SDS011;8462;53.156;8.220;2023-04-01T02:55:12;13.17;;;8.50;;
7657;SDS011;8462;53.156;8.220;2023-04-01T02:57:39;15.33;;;9.13;;
7657;SDS011;8462;53.156;8.220;2023-04-01T03:00:07;14.87;;;9.23;;
7657;SDS011;8462;53.156;8.220;2023-04-01T03:02:36;14.30;;;9.43;;
7657;SDS011;8462;53.156;8.220;2023-04-01T03:05:04;14.57;;;9.03;;
7657;SDS011;8462;53.156;8.220;2023-04-01T03:07:32;14.17;;;8.73;;
7657;SDS011;8462;53.156;8.220;2023-04-01T03:09:59;16.40;;;9.20;;
7657;SDS011;8462;53.156;8.220;2023-04-01T03:12:27;16.73;;;9.77;;
7657;SDS011;8462;53.156;8.220;2023-04-01T03:14:54;15.77;;;9.57;;
7657;SDS011;8462;53.156;8.220;2023-04-01T03:17:21;13.97;;;8.70;;
7657;SDS011;8462;53.156;8.220;2023-04-01T03:19:48;13.77;;;8.63;;
7657;SDS011;8462;53.156;8.220;2023-04-01T03:22:15;16.73;;;9.17;;
7657;SDS011;8462;53.156;8.220;2023-04-01T03:24:44;15.73;;;9.50;;
7657;SDS011;8462;53.156;8.220;2023-04-01T03:27:11;13.70;;;9.17;;
7657;SDS011;8462;53.156;8.220;2023-04-01T03:29:39;13.87;;;9.23;;
7657;SDS011;8462;53.156;8.220;2023-04-01T03:32:07;17.27;;;9.40;;
7657;SDS011;8462;53.156;8.220;2023-04-01T03:34:34;13.63;;;8.60;;
7657;SDS011;8462;53.156;8.220;2023-04-01T03:37:01;14.27;;;9.13;;
7657;SDS011;8462;53.156;8.220;2023-04-01T03:39:27;14.47;;;9.50;;
7657;SDS011;8462;53.156;8.220;2023-04-01T03:41:54;16.63;;;9.47;;
7657;SDS011;8462;53.156;8.220;2023-04-01T03:44:21;15.43;;;8.67;;
7657;SDS011;8462;53.156;8.220;2023-04-01T03:46:52;17.67;;;9.77;;
7657;SDS011;8462;53.156;8.220;2023-04-01T03:49:19;15.07;;;8.83;;
7657;SDS011;8462;53.156;8.220;2023-04-01T03:51:46;17.03;;;9.13;;
7657;SDS011;8462;53.156;8.220;2023-04-01T03:54:13;14.70;;;8.63;;
7657;SDS011;8462;53.156;8.220;2023-04-01T03:56:42;13.50;;;8.20;;
7657;SDS011;8462;53.156;8.220;2023-04-01T03:59:10;15.73;;;9.20;;
7657;SDS011;8462;53.156;8.220;2023-04-01T04:01:37;14.53;;;8.60;;
7657;SDS011;8462;53.156;8.220;2023-04-01T04:04:06;14.60;;;8.90;;
7657;SDS011;8462;53.156;8.220;2023-04-01T04:06:33;16.40;;;10.07;;
7657;SDS011;8462;53.156;8.220;2023-04-01T04:09:00;16.33;;;9.57;;
7657;SDS011;8462;53.156;8.220;2023-04-01T04:11:30;13.27;;;8.03;;
7657;SDS011;8462;53.156;8.220;2023-04-01T04:13:57;13.90;;;9.13;;
7657;SDS011;8462;53.156;8.220;2023-04-01T04:16:25;15.83;;;8.80;;
7657;SDS011;8462;53.156;8.220;2023-04-01T04:18:56;15.07;;;9.47;;
7657;SDS011;8462;53.156;8.220;2023-04-01T04:21:25;15.80;;;9.00;;
7657;SDS011;8462;53.156;8.220;2023-04-01T04:23:51;15.67;;;9.30;;
7657;SDS011;8462;53.156;8.220;2023-04-01T04:26:19;16.30;;;9.23;;
7657;SDS011;8462;53.156;8.220;2023-04-01T04:28:57;13.87;;;7.83;;
7657;SDS011;8462;53.156;8.220;2023-04-01T04:31:24;16.63;;;8.47;;
7657;SDS011;8462;53.156;8.220;2023-04-01T04:33:54;14.57;;;9.07;;
7657;SDS011;8462;53.156;8.220;2023-04-01T04:36:21;17.00;;;8.80;;
7657;SDS011;8462;53.156;8.220;2023-04-01T04:38:51;14.83;;;8.93;;
7657;SDS011;8462;53.156;8.220;2023-04-01T04:41:18;13.80;;;9.10;;
7657;SDS011;8462;53.156;8.220;2023-04-01T04:43:49;15.77;;;8.73;;
7657;SDS011;8462;53.156;8.220;2023-04-01T04:46:17;15.57;;;8.93;;
7657;SDS011;8462;53.156;8.220;2023-04-01T04:48:45;15.23;;;8.63;;
7657;SDS011;8462;53.156;8.220;2023-04-01T04:51:13;14.37;;;8.73;;
7657;SDS011;8462;53.156;8.220;2023-04-01T04:53:41;17.07;;;8.47;;
7657;SDS011;8462;53.156;8.220;2023-04-01T04:56:09;15.27;;;8.70;;
7657;SDS011;8462;53.156;8.220;2023-04-01T04:58:43;15.17;;;8.33;;
7657;SDS011;8462;53.156;8.220;2023-04-01T05:01:15;13.47;;;8.23;;
7657;SDS011;8462;53.156;8.220;2023-04-01T05:03:43;14.93;;;8.10;;
7657;SDS011;8462;53.156;8.220;2023-04-01T05:06:11;12.43;;;6.93;;
7657;SDS011;8462;53.156;8.220;2023-04-01T05:08:39;13.73;;;8.23;;
7657;SDS011;8462;53.156;8.220;2023-04-01T05:11:10;12.93;;;8.10;;
7657;SDS011;8462;53.156;8.220;2023-04-01T05:13:41;15.27;;;7.23;;
7657;SDS011;8462;53.156;8.220;2023-04-01T05:16:09;11.77;;;7.57;;
7657;SDS011;8462;53.156;8.220;2023-04-01T05:18:36;15.63;;;8.17;;
7657;SDS011;8462;53.156;8.220;2023-04-01T05:21:06;13.03;;;7.90;;
7657;SDS011;8462;53.156;8.220;2023-04-01T05:23:33;13.30;;;6.13;;
7657;SDS011;8462;53.156;8.220;2023-04-01T05:26:02;15.47;;;7.43;;
7657;SDS011;8462;53.156;8.220;2023-04-01T05:28:32;12.20;;;7.37;;
7657;SDS011;8462;53.156;8.220;2023-04-01T05:31:00;14.00;;;7.33;;
7657;SDS011;8462;53.156;8.220;2023-04-01T05:33:33;15.27;;;6.63;;
7657;SDS011;8462;53.156;8.220;2023-04-01T05:36:08;13.10;;;7.40;;
7657;SDS011;8462;53.156;8.220;2023-04-01T05:38:36;12.30;;;7.67;;
7657;SDS011;8462;53.156;8.220;2023-04-01T05:41:05;12.53;;;7.80;;
7657;SDS011;8462;53.156;8.220;2023-04-01T05:43:37;12.40;;;6.90;;
7657;SDS011;8462;53.156;8.220;2023-04-01T05:46:24;12.70;;;7.87;;
7657;SDS011;8462;53.156;8.220;2023-04-01T05:49:04;11.67;;;6.77;;
7657;SDS011;8462;53.156;8.220;2023-04-01T05:51:31;10.87;;;6.73;;
7657;SDS011;8462;53.156;8.220;2023-04-01T05:53:58;9.00;;;6.20;;
7657;SDS011;8462;53.156;8.220;2023-04-01T05:56:25;7.67;;;5.13;;
7657;SDS011;8462;53.156;8.220;2023-04-01T05:58:54;10.27;;;6.00;;
7657;SDS011;8462;53.156;8.220;2023-04-01T06:01:22;11.90;;;6.90;;
7657;SDS011;8462;53.156;8.220;2023-04-01T06:03:49;8.20;;;5.90;;
7657;SDS011;8462;53.156;8.220;2023-04-01T06:06:19;10.37;;;6.10;;
7657;SDS011;8462;53.156;8.220;2023-04-01T06:08:57;10.90;;;6.27;;
7657;SDS011;8462;53.156;8.220;2023-04-01T06:11:32;8.93;;;5.97;;
7657;SDS011;8462;53.156;8.220;2023-04-01T06:14:15;9.20;;;5.37;;
7657;SDS011;8462;53.156;8.220;2023-04-01T06:16:55;8.40;;;5.27;;
7657;SDS011;8462;53.156;8.220;2023-04-01T06:19:34;7.33;;;4.93;;
7657;SDS011;8462;53.156;8.220;2023-04-01T06:22:13;8.63;;;5.83;;
7657;SDS011;8462;53.156;8.220;2023-04-01T06:28:25;9.43;;;5.77;;
7657;SDS011;8462;53.156;8.220;2023-04-01T06:31:20;9.93;;;6.10;;
7657;SDS011;8462;53.156;8.220;2023-04-01T06:33:56;8.87;;;5.27;;
7657;SDS011;8462;53.156;8.220;2023-04-01T06:36:46;7.73;;;5.40;;
7657;SDS011;8462;53.156;8.220;2023-04-01T06:39:40;6.87;;;4.83;;
7657;SDS011;8462;53.156;8.220;2023-04-01T06:42:22;8.23;;;5.00;;
7657;SDS011;8462;53.156;8.220;2023-04-01T06:45:05;7.77;;;5.13;;
7657;SDS011;8462;53.156;8.220;2023-04-01T06:48:24;9.07;;;6.10;;
7657;SDS011;8462;53.156;8.220;2023-04-01T06:51:33;8.90;;;5.40;;
7657;SDS011;8462;53.156;8.220;2023-04-01T06:54:29;11.00;;;5.10;;
7657;SDS011;8462;53.156;8.220;2023-04-01T06:57:08;8.33;;;5.73;;
7657;SDS011;8462;53.156;8.220;2023-04-01T06:59:46;9.23;;;5.40;;
7657;SDS011;8462;53.156;8.220;2023-04-01T07:02:18;10.13;;;5.73;;
7657;SDS011;8462;53.156;8.220;2023-04-01T07:04:53;8.67;;;6.10;;
7657;SDS011;8462;53.156;8.220;2023-04-01T07:07:24;8.33;;;5.70;;
7657;SDS011;8462;53.156;8.220;2023-04-01T07:10:02;7.50;;;4.43;;
7657;SDS011;8462;53.156;8.220;2023-04-01T07:12:34;8.27;;;5.80;;
7657;SDS011;8462;53.156;8.220;2023-04-01T07:15:25;7.57;;;4.73;;
7657;SDS011;8462;53.156;8.220;2023-04-01T07:17:57;7.73;;;4.37;;
7657;SDS011;8462;53.156;8.220;2023-04-01T07:20:32;6.27;;;4.80;;
7657;SDS011;8462;53.156;8.220;2023-04-01T07:23:04;8.13;;;5.53;;
7657;SDS011;8462;53.156;8.220;2023-04-01T07:26:14;6.93;;;4.97;;
7657;SDS011;8462;53.156;8.220;2023-04-01T07:29:05;5.37;;;4.10;;
7657;SDS011;8462;53.156;8.220;2023-04-01T07:31:45;7.13;;;4.73;;
7657;SDS011;8462;53.156;8.220;2023-04-01T07:34:33;7.37;;;4.67;;
7657;SDS011;8462;53.156;8.220;2023-04-01T07:37:10;4.83;;;4.10;;
7657;SDS011;8462;53.156;8.220;2023-04-01T07:39:43;6.70;;;4.43;;
7657;SDS011;8462;53.156;8.220;2023-04-01T07:42:27;7.60;;;4.00;;
7657;SDS011;8462;53.156;8.220;2023-04-01T07:45:02;6.87;;;4.47;;
7657;SDS011;8462;53.156;8.220;2023-04-01T07:47:45;5.97;;;4.33;;
7657;SDS011;8462;53.156;8.220;2023-04-01T07:50:34;5.57;;;4.07;;
7657;SDS011;8462;53.156;8.220;2023-04-01T07:53:11;6.90;;;4.40;;
7657;SDS011;8462;53.156;8.220;2023-04-01T07:55:47;5.23;;;4.07;;
7657;SDS011;8462;53.156;8.220;2023-04-01T07:58:25;6.70;;;4.03;;
7657;SDS011;8462;53.156;8.220;2023-04-01T08:01:05;7.17;;;4.77;;
7657;SDS011;8462;53.156;8.220;2023-04-01T08:03:51;5.47;;;3.80;;
7657;SDS011;8462;53.156;8.220;2023-04-01T08:06:35;6.53;;;3.83;;
7657;SDS011;8462;53.156;8.220;2023-04-01T08:09:12;4.97;;;3.63;;
7657;SDS011;8462;53.156;8.220;2023-04-01T08:12:08;6.23;;;4.03;;
7657;SDS011;8462;53.156;8.220;2023-04-01T08:15:21;5.90;;;3.97;;
7657;SDS011;8462;53.156;8.220;2023-04-01T08:18:11;4.40;;;3.70;;
7657;SDS011;8462;53.156;8.220;2023-04-01T08:20:46;4.70;;;4.20;;
7657;SDS011;8462;53.156;8.220;2023-04-01T08:23:17;5.47;;;3.60;;
7657;SDS011;8462;53.156;8.220;2023-04-01T08:25:50;4.13;;;3.47;;
7657;SDS011;8462;53.156;8.220;2023-04-01T08:28:24;4.93;;;3.87;;
7657;SDS011;8462;53.156;8.220;2023-04-01T08:30:58;4.50;;;3.40;;
7657;SDS011;8462;53.156;8.220;2023-04-01T08:33:31;3.83;;;2.90;;
7657;SDS011;8462;53.156;8.220;2023-04-01T08:36:03;6.73;;;3.17;;
7657;SDS011;8462;53.156;8.220;2023-04-01T08:38:36;3.20;;;2.90;;
7657;SDS011;8462;53.156;8.220;2023-04-01T08:41:14;6.00;;;3.20;;
7657;SDS011;8462;53.156;8.220;2023-04-01T08:44:24;4.40;;;3.03;;
7657;SDS011;8462;53.156;8.220;2023-04-01T08:53:46;4.23;;;2.53;;
7657;SDS011;8462;53.156;8.220;2023-04-01T08:56:30;2.43;;;2.23;;
7657;SDS011;8462;53.156;8.220;2023-04-01T08:59:12;3.10;;;2.13;;
7657;SDS011;8462;53.156;8.220;2023-04-01T09:02:02;3.60;;;2.23;;
7657;SDS011;8462;53.156;8.220;2023-04-01T09:05:03;3.33;;;2.40;;
7657;SDS011;8462;53.156;8.220;2023-04-01T09:07:50;2.77;;;2.40;;
7657;SDS011;8462;53.156;8.220;2023-04-01T09:10:35;3.17;;;2.50;;
7657;SDS011;8462;53.156;8.220;2023-04-01T09:13:50;3.27;;;2.13;;
7657;SDS011;8462;53.156;8.220;2023-04-01T09:16:38;4.40;;;2.20;;
7657;SDS011;8462;53.156;8.220;2023-04-01T09:19:21;4.70;;;2.80;;
7657;SDS011;8462;53.156;8.220;2023-04-01T09:22:09;3.10;;;2.57;;
7657;SDS011;8462;53.156;8.220;2023-04-01T09:25:02;2.70;;;2.50;;
7657;SDS011;8462;53.156;8.220;2023-04-01T09:27:52;3.10;;;2.20;;
7657;SDS011;8462;53.156;8.220;2023-04-01T09:30:35;2.33;;;2.13;;
7657;SDS011;8462;53.156;8.220;2023-04-01T09:36:18;2.40;;;1.47;;
7657;SDS011;8462;53.156;8.220;2023-04-01T09:38:57;1.53;;;1.40;;
7657;SDS011;8462;53.156;8.220;2023-04-01T09:41:30;1.93;;;1.73;;
7657;SDS011;8462;53.156;8.220;2023-04-01T09:44:11;3.23;;;2.47;;
7657;SDS011;8462;53.156;8.220;2023-04-01T09:47:09;2.83;;;2.53;;
7657;SDS011;8462;53.156;8.220;2023-04-01T09:50:13;2.67;;;2.20;;
7657;SDS011;8462;53.156;8.220;2023-04-01T09:52:49;3.77;;;2.07;;
7657;SDS011;8462;53.156;8.220;2023-04-01T09:58:28;3.20;;;1.73;;
7657;SDS011;8462;53.156;8.220;2023-04-01T10:01:57;0.60;;;0.60;;
7657;SDS011;8462;53.156;8.220;2023-04-01T10:07:51;0.70;;;0.70;;
7657;SDS011;8462;53.156;8.220;2023-04-01T10:13:58;1.17;;;1.07;;
7657;SDS011;8462;53.156;8.220;2023-04-01T10:17:06;1.20;;;1.10;;
7657;SDS011;8462;53.156;8.220;2023-04-01T10:19:53;2.57;;;1.50;;
7657;SDS011;8462;53.156;8.220;2023-04-01T10:22:53;1.70;;;1.60;;
7657;SDS011;8462;53.156;8.220;2023-04-01T10:29:07;1.60;;;1.50;;
7657;SDS011;8462;53.156;8.220;2023-04-01T10:32:07;1.90;;;1.63;;
7657;SDS011;8462;53.156;8.220;2023-04-01T10:34:56;1.67;;;1.57;;
7657;SDS011;8462;53.156;8.220;2023-04-01T10:37:46;1.40;;;1.27;;
7657;SDS011;8462;53.156;8.220;2023-04-01T10:40:53;2.33;;;1.90;;
7657;SDS011;8462;53.156;8.220;2023-04-01T10:44:11;2.20;;;2.00;;
7657;SDS011;8462;53.156;8.220;2023-04-01T10:53:22;3.73;;;2.83;;
7657;SDS011;8462;53.156;8.220;2023-04-01T10:56:36;4.87;;;3.20;;
7657;SDS011;8462;53.156;8.220;2023-04-01T11:06:26;4.87;;;3.73;;
7657;SDS011;8462;53.156;8.220;2023-04-01T11:16:01;2.27;;;2.03;;
7657;SDS011;8462;53.156;8.220;2023-04-01T11:19:04;4.10;;;2.57;;
7657;SDS011;8462;53.156;8.220;2023-04-01T11:21:59;4.77;;;3.20;;
7657;SDS011;8462;53.156;8.220;2023-04-01T11:27:55;4.33;;;3.33;;
7657;SDS011;8462;53.156;8.220;2023-04-01T11:30:38;2.60;;;2.17;;
7657;SDS011;8462;53.156;8.220;2023-04-01T11:33:17;4.50;;;3.27;;
7657;SDS011;8462;53.156;8.220;2023-04-01T11:35:58;3.53;;;1.70;;
7657;SDS011;8462;53.156;8.220;2023-04-01T11:41:44;0.10;;;0.10;;
7657;SDS011;8462;53.156;8.220;2023-04-01T11:44:34;0.10;;;0.10;;
7657;SDS011;8462;53.156;8.220;2023-04-01T11:47:24;0.13;;;0.13;;
7657;SDS011;8462;53.156;8.220;2023-04-01T11:50:17;0.20;;;0.20;;
7657;SDS011;8462;53.156;8.220;2023-04-01T11:52:57;0.20;;;0.20;;
7657;SDS011;8462;53.156;8.220;2023-04-01T11:55:47;0.10;;;0.10;;
7657;SDS011;8462;53.156;8.220;2023-04-01T11:58:35;0.20;;;0.20;;
7657;SDS011;8462;53.156;8.220;2023-04-01T12:01:25;0.17;;;0.17;;
7657;SDS011;8462;53.156;8.220;2023-04-01T12:06:51;0.20;;;0.20;;
7657;SDS011;8462;53.156;8.220;2023-04-01T12:09:29;0.20;;;0.20;;
7657;SDS011;8462;53.156;8.220;2023-04-01T12:12:03;0.30;;;0.30;;
7657;SDS011;8462;53.156;8.220;2023-04-01T12:14:41;0.20;;;0.20;;
7657;SDS011;8462;53.156;8.220;2023-04-01T12:17:16;0.20;;;0.20;;
7657;SDS011;8462;53.156;8.220;2023-04-01T12:19:55;0.10;;;0.10;;
7657;SDS011;8462;53.156;8.220;2023-04-01T12:22:34;0.20;;;0.20;;
7657;SDS011;8462;53.156;8.220;2023-04-01T12:25:22;0.10;;;0.10;;
7657;SDS011;8462;53.156;8.220;2023-04-01T12:28:05;0.20;;;0.20;;
7657;SDS011;8462;53.156;8.220;2023-04-01T12:30:46;0.10;;;0.10;;
7657;SDS011;8462;53.156;8.220;2023-04-01T12:36:16;0.10;;;0.10;;
7657;SDS011;8462;53.156;8.220;2023-04-01T12:39:00;0.10;;;0.10;;
7657;SDS011;8462;53.156;8.220;2023-04-01T12:41:59;0.67;;;0.67;;
7657;SDS011;8462;53.156;8.220;2023-04-01T12:44:42;0.10;;;0.10;;
7657;SDS011;8462;53.156;8.220;2023-04-01T12:47:30;0.20;;;0.20;;
7657;SDS011;8462;53.156;8.220;2023-04-01T12:50:10;0.20;;;0.20;;
7657;SDS011;8462;53.156;8.220;2023-04-01T12:52:52;0.10;;;0.10;;
7657;SDS011;8462;53.156;8.220;2023-04-01T12:58:15;0.13;;;0.13;;
7657;SDS011;8462;53.156;8.220;2023-04-01T13:07:30;0.20;;;0.20;;
7657;SDS011;8462;53.156;8.220;2023-04-01T13:10:13;0.10;;;0.10;;
7657;SDS011;8462;53.156;8.220;2023-04-01T13:12:59;0.30;;;0.30;;
7657;SDS011;8462;53.156;8.220;2023-04-01T13:15:37;0.17;;;0.17;;
7657;SDS011;8462;53.156;8.220;2023-04-01T13:18:18;0.10;;;0.10;;
7657;SDS011;8462;53.156;8.220;2023-04-01T13:20:58;0.10;;;0.10;;
7657;SDS011;8462;53.156;8.220;2023-04-01T13:23:38;0.20;;;0.20;;
7657;SDS011;8462;53.156;8.220;2023-04-01T13:26:17;0.20;;;0.20;;
7657;SDS011;8462;53.156;8.220;2023-04-01T13:28:50;0.20;;;0.20;;
7657;SDS011;8462;53.156;8.220;2023-04-01T13:31:24;0.20;;;0.20;;
7657;SDS011;8462;53.156;8.220;2023-04-01T13:34:02;0.10;;;0.10;;
7657;SDS011;8462;53.156;8.220;2023-04-01T13:36:41;0.10;;;0.10;;
7657;SDS011;8462;53.156;8.220;2023-04-01T13:39:24;0.30;;;0.30;;
7657;SDS011;8462;53.156;8.220;2023-04-01T13:42:10;0.10;;;0.10;;
7657;SDS011;8462;53.156;8.220;2023-04-01T13:44:44;0.10;;;0.10;;
7657;SDS011;8462;53.156;8.220;2023-04-01T13:50:21;0.20;;;0.20;;
7657;SDS011;8462;53.156;8.220;2023-04-01T13:53:08;0.20;;;0.20;;
7657;SDS011;8462;53.156;8.220;2023-04-01T13:56:04;0.20;;;0.20;;
7657;SDS011;8462;53.156;8.220;2023-04-01T13:58:49;0.20;;;0.20;;
7657;SDS011;8462;53.156;8.220;2023-04-01T14:01:35;0.10;;;0.10;;
7657;SDS011;8462;53.156;8.220;2023-04-01T14:04:14;0.13;;;0.13;;
7657;SDS011;8462;53.156;8.220;2023-04-01T14:06:57;0.20;;;0.20;;
7657;SDS011;8462;53.156;8.220;2023-04-01T14:09:42;0.10;;;0.10;;
7657;SDS011;8462;53.156;8.220;2023-04-01T14:12:17;0.10;;;0.10;;
7657;SDS011;8462;53.156;8.220;2023-04-01T14:14:59;0.23;;;0.23;;
7657;SDS011;8462;53.156;8.220;2023-04-01T14:17:53;0.10;;;0.10;;
7657;SDS011;8462;53.156;8.220;2023-04-01T14:20:45;0.10;;;0.10;;
7657;SDS011;8462;53.156;8.220;2023-04-01T14:23:30;0.20;;;0.20;;
7657;SDS011;8462;53.156;8.220;2023-04-01T14:29:23;0.20;;;0.20;;
7657;SDS011;8462;53.156;8.220;2023-04-01T14:32:01;0.20;;;0.20;;
7657;SDS011;8462;53.156;8.220;2023-04-01T14:34:46;0.20;;;0.20;;
7657;SDS011;8462;53.156;8.220;2023-04-01T14:37:28;0.10;;;0.10;;
7657;SDS011;8462;53.156;8.220;2023-04-01T14:40:21;0.20;;;0.20;;
7657;SDS011;8462;53.156;8.220;2023-04-01T14:43:08;0.43;;;0.43;;
7657;SDS011;8462;53.156;8.220;2023-04-01T14:45:59;0.10;;;0.10;;
7657;SDS011;8462;53.156;8.220;2023-04-01T14:48:51;0.17;;;0.17;;
7657;SDS011;8462;53.156;8.220;2023-04-01T14:51:22;0.20;;;0.20;;
7657;SDS011;8462;53.156;8.220;2023-04-01T14:54:03;0.20;;;0.20;;
7657;SDS011;8462;53.156;8.220;2023-04-01T14:56:36;0.10;;;0.10;;
7657;SDS011;8462;53.156;8.220;2023-04-01T14:59:08;0.10;;;0.10;;
7657;SDS011;8462;53.156;8.220;2023-04-01T15:01:41;0.10;;;0.10;;
7657;SDS011;8462;53.156;8.220;2023-04-01T15:04:23;0.10;;;0.10;;
7657;SDS011;8462;53.156;8.220;2023-04-01T15:07:07;0.20;;;0.20;;
7657;SDS011;8462;53.156;8.220;2023-04-01T15:09:49;0.10;;;0.10;;
7657;SDS011;8462;53.156;8.220;2023-04-01T15:12:26;0.20;;;0.20;;
7657;SDS011;8462;53.156;8.220;2023-04-01T15:17:58;0.20;;;0.20;;
7657;SDS011;8462;53.156;8.220;2023-04-01T15:20:51;0.10;;;0.10;;
7657;SDS011;8462;53.156;8.220;2023-04-01T15:23:51;0.13;;;0.13;;
7657;SDS011;8462;53.156;8.220;2023-04-01T15:26:39;1.57;;;1.50;;
7657;SDS011;8462;53.156;8.220;2023-04-01T15:32:16;0.20;;;0.20;;
7657;SDS011;8462;53.156;8.220;2023-04-01T15:34:47;0.20;;;0.20;;
7657;SDS011;8462;53.156;8.220;2023-04-01T15:37:21;0.20;;;0.20;;
7657;SDS011;8462;53.156;8.220;2023-04-01T15:40:01;0.17;;;0.17;;
7657;SDS011;8462;53.156;8.220;2023-04-01T15:42:41;0.13;;;0.13;;
7657;SDS011;8462;53.156;8.220;2023-04-01T15:45:26;0.20;;;0.20;;
7657;SDS011;8462;53.156;8.220;2023-04-01T15:48:12;0.17;;;0.17;;
7657;SDS011;8462;53.156;8.220;2023-04-01T15:50:53;0.20;;;0.20;;
7657;SDS011;8462;53.156;8.220;2023-04-01T15:53:34;0.10;;;0.10;;
7657;SDS011;8462;53.156;8.220;2023-04-01T15:56:16;0.10;;;0.10;;
7657;SDS011;8462;53.156;8.220;2023-04-01T15:58:53;0.10;;;0.10;;
7657;SDS011;8462;53.156;8.220;2023-04-01T16:01:33;0.20;;;0.20;;
7657;SDS011;8462;53.156;8.220;2023-04-01T16:04:12;0.10;;;0.10;;
7657;SDS011;8462;53.156;8.220;2023-04-01T16:06:53;0.50;;;0.50;;
7657;SDS011;8462;53.156;8.220;2023-04-01T16:09:44;0.20;;;0.20;;
7657;SDS011;8462;53.156;8.220;2023-04-01T16:12:38;0.10;;;0.10;;
7657;SDS011;8462;53.156;8.220;2023-04-01T16:15:18;0.10;;;0.10;;
7657;SDS011;8462;53.156;8.220;2023-04-01T16:17:59;0.10;;;0.10;;
7657;SDS011;8462;53.156;8.220;2023-04-01T16:20:42;0.10;;;0.10;;
7657;SDS011;8462;53.156;8.220;2023-04-01T16:23:18;0.10;;;0.10;;
7657;SDS011;8462;53.156;8.220;2023-04-01T16:25:54;0.10;;;0.10;;
7657;SDS011;8462;53.156;8.220;2023-04-01T16:28:30;0.20;;;0.20;;
7657;SDS011;8462;53.156;8.220;2023-04-01T16:31:03;0.77;;;0.77;;
7657;SDS011;8462;53.156;8.220;2023-04-01T16:33:37;0.13;;;0.13;;
7657;SDS011;8462;53.156;8.220;2023-04-01T16:36:13;0.20;;;0.20;;
7657;SDS011;8462;53.156;8.220;2023-04-01T16:38:50;0.20;;;0.20;;
7657;SDS011;8462;53.156;8.220;2023-04-01T16:41:25;0.10;;;0.10;;
7657;SDS011;8462;53.156;8.220;2023-04-01T16:43:57;0.10;;;0.10;;
7657;SDS011;8462;53.156;8.220;2023-04-01T16:46:39;0.20;;;0.20;;
7657;SDS011;8462;53.156;8.220;2023-04-01T16:52:12;0.20;;;0.20;;
7657;SDS011;8462;53.156;8.220;2023-04-01T16:54:43;0.10;;;0.10;;
7657;SDS011;8462;53.156;8.220;2023-04-01T16:57:19;0.10;;;0.10;;
7657;SDS011;8462;53.156;8.220;2023-04-01T16:59:54;0.10;;;0.10;;
7657;SDS011;8462;53.156;8.220;2023-04-01T17:02:28;0.20;;;0.20;;
7657;SDS011;8462;53.156;8.220;2023-04-01T17:05:01;0.20;;;0.20;;
7657;SDS011;8462;53.156;8.220;2023-04-01T17:07:37;0.20;;;0.20;;
7657;SDS011;8462;53.156;8.220;2023-04-01T17:10:25;0.10;;;0.10;;
7657;SDS011;8462;53.156;8.220;2023-04-01T17:15:54;0.13;;;0.13;;
7657;SDS011;8462;53.156;8.220;2023-04-01T17:18:32;0.17;;;0.17;;
7657;SDS011;8462;53.156;8.220;2023-04-01T17:21:09;0.20;;;0.20;;
7657;SDS011;8462;53.156;8.220;2023-04-01T17:23:42;0.10;;;0.10;;
7657;SDS011;8462;53.156;8.220;2023-04-01T17:26:14;0.20;;;0.20;;
7657;SDS011;8462;53.156;8.220;2023-04-01T17:28:50;0.20;;;0.20;;
7657;SDS011;8462;53.156;8.220;2023-04-01T17:31:34;0.20;;;0.20;;
7657;SDS011;8462;53.156;8.220;2023-04-01T17:34:15;0.20;;;0.20;;
7657;SDS011;8462;53.156;8.220;2023-04-01T17:37:02;0.10;;;0.10;;
7657;SDS011;8462;53.156;8.220;2023-04-01T17:39:48;0.20;;;0.20;;
7657;SDS011;8462;53.156;8.220;2023-04-01T17:42:31;0.10;;;0.10;;
7657;SDS011;8462;53.156;8.220;2023-04-01T17:45:04;0.20;;;0.20;;
7657;SDS011;8462;53.156;8.220;2023-04-01T17:47:40;0.10;;;0.10;;
7657;SDS011;8462;53.156;8.220;2023-04-01T17:50:19;0.10;;;0.10;;